Arnold Line, Mississippi
Current Conditions -  °F | °C
As of 8:53 PM on Saturday 24 Jan 2015 (Local Time) from KHBG Reporting Station
Clear Clear  
Wind Chill: 38°   Ceiling: Unl
Heat Index: 38°   Visibility: 10mi
Dew Point: 35°   Wind: 0mph
Humidity: 89%   Direction: NA
Pressure: 30.06"   Gusts: NA
Location:  31.1996°N, 89.2694°W
Report Text: KHBG 250253Z AUTO 00000KT 10SM CLR 03/02 A3006 RMK AO2 SLP180 T00330017 50002
Loading
Personal Weather Stations






























Interactive Weather Map New forecast layout! Learn more

10-Day Weather Forecast

Advertisements
Track Severe Weather on mobile